createdAt,value
2018-12-05T00:00:09.951Z,11.07
2018-12-05T00:02:36.600Z,9.47
2018-12-05T00:05:04.084Z,8.23
2018-12-05T00:07:30.520Z,7.90
2018-12-05T00:09:56.965Z,6.93
2018-12-05T00:12:23.679Z,13.80
2018-12-05T00:14:50.225Z,6.80
2018-12-05T00:17:16.816Z,6.80
2018-12-05T00:19:43.300Z,8.23
2018-12-05T00:22:09.837Z,8.07
2018-12-05T00:24:36.470Z,9.67
2018-12-05T00:27:03.048Z,8.03
2018-12-05T00:29:29.537Z,8.80
2018-12-05T00:31:56.105Z,9.37
2018-12-05T00:34:22.563Z,5.60
2018-12-05T00:36:49.032Z,9.00
2018-12-05T00:39:15.570Z,6.00
2018-12-05T00:41:42.145Z,9.30
2018-12-05T00:44:08.593Z,9.20
2018-12-05T00:46:35.207Z,10.10
2018-12-05T00:49:01.657Z,9.63
2018-12-05T00:51:28.148Z,8.50
2018-12-05T00:53:54.812Z,10.83
2018-12-05T00:56:21.383Z,10.30
2018-12-05T00:58:47.842Z,11.90
2018-12-05T01:01:14.602Z,18.40
2018-12-05T01:03:41.376Z,9.10
2018-12-05T01:06:08.287Z,8.33
2018-12-05T01:08:35.131Z,10.00
2018-12-05T01:11:02.550Z,6.97
2018-12-05T01:13:29.940Z,8.83
2018-12-05T01:15:57.186Z,10.47
2018-12-05T01:18:23.972Z,7.70
2018-12-05T01:20:50.450Z,9.40
2018-12-05T01:23:17.116Z,6.47
2018-12-05T01:25:43.823Z,9.07
2018-12-05T01:28:10.727Z,12.07
2018-12-05T01:30:37.205Z,7.67
2018-12-05T01:33:03.795Z,9.23
2018-12-05T01:35:30.257Z,6.00
2018-12-05T01:37:56.631Z,9.23
2018-12-05T01:40:23.080Z,8.67
2018-12-05T01:42:49.602Z,7.50
2018-12-05T01:45:16.154Z,6.13
2018-12-05T01:47:42.662Z,7.67
2018-12-05T01:50:09.221Z,7.97
2018-12-05T01:52:35.786Z,9.10
2018-12-05T01:55:02.457Z,6.87
2018-12-05T01:57:29.024Z,7.97
2018-12-05T01:59:55.365Z,5.77
2018-12-05T02:02:21.852Z,6.30
2018-12-05T02:04:48.201Z,9.27
2018-12-05T02:07:15.571Z,7.30
2018-12-05T02:09:44.655Z,8.40
2018-12-05T02:12:11.354Z,10.87
2018-12-05T02:14:37.912Z,7.73
2018-12-05T02:17:04.486Z,9.47
2018-12-05T02:19:31.030Z,8.40
2018-12-05T02:21:57.930Z,6.80
2018-12-05T02:24:24.634Z,6.67
2018-12-05T02:26:51.435Z,7.77
2018-12-05T02:29:18.072Z,9.37
2018-12-05T02:31:44.802Z,7.67
2018-12-05T02:34:11.348Z,11.17
2018-12-05T02:36:37.888Z,8.83
2018-12-05T02:39:06.706Z,7.57
2018-12-05T02:41:33.771Z,9.30
2018-12-05T02:44:00.440Z,7.60
2018-12-05T02:46:27.692Z,7.40
2018-12-05T02:48:54.386Z,6.60
2018-12-05T02:51:20.953Z,8.90
2018-12-05T02:53:47.633Z,8.40
2018-12-05T02:56:14.194Z,12.10
2018-12-05T02:58:40.791Z,7.33
2018-12-05T03:01:08.928Z,11.20
2018-12-05T03:03:35.801Z,10.20
2018-12-05T03:06:02.616Z,9.20
2018-12-05T03:08:29.286Z,12.33
2018-12-05T03:10:55.834Z,10.17
2018-12-05T03:13:22.399Z,9.27
2018-12-05T03:15:48.956Z,9.50
2018-12-05T03:18:15.529Z,8.57
2018-12-05T03:20:42.204Z,13.23
2018-12-05T03:23:08.787Z,11.43
2018-12-05T03:25:35.631Z,12.00
2018-12-05T03:28:02.375Z,8.47
2018-12-05T03:30:28.919Z,15.27
2018-12-05T03:32:55.494Z,15.20
2018-12-05T03:35:23.986Z,13.33
2018-12-05T03:37:50.474Z,14.13
2018-12-05T03:40:16.910Z,9.30
2018-12-05T03:42:43.684Z,16.27
2018-12-05T03:45:10.246Z,10.93
2018-12-05T03:47:36.683Z,14.60
2018-12-05T03:50:04.293Z,12.53
2018-12-05T03:52:30.952Z,10.10
2018-12-05T03:54:57.673Z,10.83
2018-12-05T03:57:24.217Z,13.90
2018-12-05T03:59:50.791Z,8.93
2018-12-05T04:02:17.349Z,14.60
2018-12-05T04:04:43.961Z,13.17
2018-12-05T04:07:10.625Z,12.53
2018-12-05T04:09:37.097Z,13.80
2018-12-05T04:12:03.675Z,14.40
2018-12-05T04:14:30.133Z,13.77
2018-12-05T04:16:56.689Z,13.63
2018-12-05T04:19:23.156Z,13.07
2018-12-05T04:21:49.600Z,14.07
2018-12-05T04:24:16.071Z,16.63
2018-12-05T04:26:42.737Z,15.73
2018-12-05T04:29:09.307Z,17.10
2018-12-05T04:31:35.739Z,14.20
2018-12-05T04:34:02.225Z,16.27
2018-12-05T04:36:28.861Z,15.20
2018-12-05T04:38:55.750Z,16.97
2018-12-05T04:41:22.343Z,19.70
2018-12-05T04:43:49.025Z,15.57
2018-12-05T04:46:16.399Z,14.43
2018-12-05T04:48:43.061Z,19.30
2018-12-05T04:51:11.211Z,17.30
2018-12-05T04:53:37.785Z,21.43
2018-12-05T04:56:04.942Z,16.70
2018-12-05T04:58:31.496Z,19.90
2018-12-05T05:00:58.070Z,18.10
2018-12-05T05:03:24.618Z,20.73
2018-12-05T05:05:51.788Z,16.67
2018-12-05T05:08:18.433Z,18.63
2018-12-05T05:10:45.110Z,19.43
2018-12-05T05:13:11.649Z,23.50
2018-12-05T05:15:38.221Z,21.63
2018-12-05T05:18:06.357Z,17.30
2018-12-05T05:20:34.648Z,18.93
2018-12-05T05:23:01.193Z,22.10
2018-12-05T05:25:27.877Z,20.43
2018-12-05T05:27:56.026Z,21.40
2018-12-05T05:30:24.202Z,20.37
2018-12-05T05:32:51.873Z,21.50
2018-12-05T05:35:36.402Z,19.40
2018-12-05T05:38:02.864Z,19.63
2018-12-05T05:40:29.469Z,21.80
2018-12-05T05:42:56.007Z,25.67
2018-12-05T05:45:22.476Z,19.97
2018-12-05T05:47:48.925Z,18.00
2018-12-05T05:50:15.403Z,18.00
2018-12-05T05:52:41.839Z,22.50
2018-12-05T05:55:08.430Z,21.70
2018-12-05T05:57:34.993Z,18.83
2018-12-05T06:00:01.925Z,20.53
2018-12-05T06:02:28.493Z,17.27
2018-12-05T06:04:55.075Z,16.43
2018-12-05T06:07:21.535Z,16.77
2018-12-05T06:09:48.017Z,19.47
2018-12-05T06:12:14.577Z,19.33
2018-12-05T06:14:41.056Z,18.90
2018-12-05T06:17:07.522Z,18.10
2018-12-05T06:19:34.081Z,18.17
2018-12-05T06:22:00.521Z,18.37
2018-12-05T06:24:26.889Z,18.93
2018-12-05T06:26:53.334Z,20.27
2018-12-05T06:29:19.771Z,19.87
2018-12-05T06:31:46.231Z,19.33
2018-12-05T06:34:12.897Z,20.23
2018-12-05T06:36:39.362Z,20.70
2018-12-05T06:39:07.080Z,17.83
2018-12-05T06:41:33.678Z,18.30
2018-12-05T06:44:00.233Z,20.77
2018-12-05T06:46:26.726Z,19.00
2018-12-05T06:48:53.174Z,22.37
2018-12-05T06:51:19.679Z,18.93
2018-12-05T06:53:46.137Z,18.40
2018-12-05T06:56:12.605Z,17.20
2018-12-05T06:58:39.169Z,19.97
2018-12-05T07:01:05.638Z,18.87
2018-12-05T07:03:32.101Z,19.10
2018-12-05T07:05:58.678Z,16.20
2018-12-05T07:08:25.123Z,13.10
2018-12-05T07:10:51.714Z,17.43
2018-12-05T07:13:18.202Z,17.20
2018-12-05T07:15:44.679Z,16.73
2018-12-05T07:18:11.276Z,19.43
2018-12-05T07:20:37.736Z,18.50
2018-12-05T07:23:04.435Z,16.50
2018-12-05T07:25:30.877Z,14.80
2018-12-05T07:27:57.419Z,16.07
2018-12-05T07:30:29.422Z,14.40
2018-12-05T07:32:52.485Z,15.07
2018-12-05T07:35:18.993Z,14.53
2018-12-05T07:37:45.594Z,12.97
2018-12-05T07:40:12.034Z,14.87
2018-12-05T07:42:38.489Z,14.23
2018-12-05T07:45:05.589Z,14.50
2018-12-05T07:47:32.117Z,11.80
2018-12-05T07:49:58.713Z,18.17
2018-12-05T07:52:25.236Z,22.37
2018-12-05T07:54:51.787Z,17.07
2018-12-05T07:57:18.369Z,16.73
2018-12-05T07:59:44.829Z,14.20
2018-12-05T08:02:11.416Z,16.07
2018-12-05T08:04:45.218Z,19.50
2018-12-05T08:07:11.795Z,17.13
2018-12-05T08:09:38.267Z,15.70
2018-12-05T08:12:04.749Z,18.03
2018-12-05T08:14:31.353Z,15.73
2018-12-05T08:16:58.022Z,14.87
2018-12-05T08:19:24.511Z,14.57
2018-12-05T08:21:51.070Z,14.10
2018-12-05T08:24:17.624Z,14.07
2018-12-05T08:26:44.105Z,18.17
2018-12-05T08:29:10.553Z,17.73
2018-12-05T08:31:37.021Z,14.00
2018-12-05T08:34:03.494Z,14.10
2018-12-05T08:36:29.971Z,13.87
2018-12-05T08:38:56.540Z,18.03
2018-12-05T08:41:24.999Z,13.40
2018-12-05T08:43:51.486Z,18.40
2018-12-05T08:46:18.171Z,17.40
2018-12-05T08:48:44.745Z,12.87
2018-12-05T08:51:11.318Z,13.83
2018-12-05T08:53:37.845Z,15.87
2018-12-05T08:56:04.326Z,19.30
2018-12-05T08:58:30.865Z,19.10
2018-12-05T09:00:57.362Z,16.97
2018-12-05T09:03:23.893Z,15.83
2018-12-05T09:05:50.358Z,17.73
2018-12-05T09:08:16.689Z,17.53
2018-12-05T09:10:43.170Z,16.60
2018-12-05T09:13:09.618Z,19.77
2018-12-05T09:15:36.181Z,18.90
2018-12-05T09:18:03.008Z,15.53
2018-12-05T09:20:29.439Z,16.30
2018-12-05T09:22:56.017Z,22.50
2018-12-05T09:25:22.447Z,19.03
2018-12-05T09:27:48.836Z,15.40
2018-12-05T09:30:15.498Z,16.60
2018-12-05T09:32:42.065Z,16.37
2018-12-05T09:35:08.510Z,22.20
2018-12-05T09:37:35.113Z,22.70
2018-12-05T09:40:02.110Z,25.83
2018-12-05T09:42:28.587Z,18.43
2018-12-05T09:44:55.110Z,20.23
2018-12-05T09:47:21.769Z,21.60
2018-12-05T09:49:48.228Z,22.60
2018-12-05T09:52:14.737Z,21.67
2018-12-05T09:54:41.438Z,20.70
2018-12-05T09:57:08.001Z,23.30
2018-12-05T09:59:34.437Z,20.60
2018-12-05T10:02:01.122Z,22.63
2018-12-05T10:04:27.573Z,19.63
2018-12-05T10:06:54.015Z,20.40
2018-12-05T10:09:20.617Z,16.90
2018-12-05T10:11:47.723Z,17.30
2018-12-05T10:14:15.006Z,21.60
2018-12-05T10:16:41.675Z,19.53
2018-12-05T10:19:08.273Z,18.33
2018-12-05T10:21:34.740Z,15.57
2018-12-05T10:24:01.220Z,18.13
2018-12-05T10:26:27.824Z,18.57
2018-12-05T10:28:54.545Z,20.80
2018-12-05T10:31:21.031Z,21.17
2018-12-05T10:33:47.775Z,19.40
2018-12-05T10:36:14.239Z,21.00
2018-12-05T10:38:40.685Z,19.33
2018-12-05T10:41:07.199Z,22.60
2018-12-05T10:43:34.525Z,20.33
2018-12-05T10:46:01.397Z,16.77
2018-12-05T10:48:28.010Z,20.00
2018-12-05T10:50:54.564Z,18.77
2018-12-05T10:53:21.176Z,17.90
2018-12-05T10:55:47.740Z,19.37
2018-12-05T10:58:14.197Z,17.63
2018-12-05T11:00:46.726Z,15.93
2018-12-05T11:03:14.141Z,20.87
2018-12-05T11:05:47.278Z,17.63
2018-12-05T11:08:19.612Z,20.50
2018-12-05T11:10:51.935Z,12.73
2018-12-05T11:13:24.615Z,17.60
2018-12-05T11:15:59.264Z,17.20
2018-12-05T11:18:33.032Z,18.03
2018-12-05T11:21:05.853Z,18.23
2018-12-05T11:23:38.823Z,15.37
2018-12-05T11:26:08.228Z,14.60
2018-12-05T11:28:34.688Z,18.50
2018-12-05T11:31:01.147Z,23.23
2018-12-05T11:33:27.757Z,15.80
2018-12-05T11:35:54.211Z,19.03
2018-12-05T11:38:20.588Z,15.40
2018-12-05T11:40:47.044Z,17.17
2018-12-05T11:43:13.540Z,12.73
2018-12-05T11:45:40.043Z,15.80
2018-12-05T11:48:06.553Z,17.20
2018-12-05T11:50:33.015Z,14.70
2018-12-05T11:52:59.593Z,15.37
2018-12-05T11:55:26.053Z,14.60
2018-12-05T11:57:52.781Z,17.07
2018-12-05T12:00:19.516Z,19.33
2018-12-05T12:02:46.137Z,15.87
2018-12-05T12:05:12.615Z,19.93
2018-12-05T12:07:39.197Z,12.70
2018-12-05T12:10:06.363Z,13.90
2018-12-05T12:12:39.103Z,16.90
2018-12-05T12:15:06.370Z,19.37
2018-12-05T12:17:33.713Z,16.20
2018-12-05T12:20:00.347Z,17.67
2018-12-05T12:22:26.831Z,16.77
2018-12-05T12:24:53.402Z,14.73
2018-12-05T12:27:19.894Z,14.93
2018-12-05T12:29:46.439Z,13.00
2018-12-05T12:32:13.009Z,18.07
2018-12-05T12:34:39.586Z,17.73
2018-12-05T12:37:06.149Z,16.27
2018-12-05T12:39:32.634Z,13.73
2018-12-05T12:41:59.174Z,13.10
2018-12-05T12:44:26.000Z,14.63
2018-12-05T12:46:52.651Z,10.70
2018-12-05T12:49:19.122Z,16.47
2018-12-05T12:51:46.482Z,19.90
2018-12-05T12:54:13.056Z,14.57
2018-12-05T12:56:39.602Z,11.03
2018-12-05T12:59:06.194Z,15.67
2018-12-05T13:01:32.753Z,10.00
2018-12-05T13:03:59.367Z,17.90
2018-12-05T13:06:26.491Z,12.77
2018-12-05T13:08:52.980Z,12.73
2018-12-05T13:11:19.343Z,15.87
2018-12-05T13:13:46.022Z,11.17
2018-12-05T13:16:12.461Z,15.80
2018-12-05T13:18:38.922Z,13.63
2018-12-05T13:21:05.477Z,14.23
2018-12-05T13:23:32.047Z,14.30
2018-12-05T13:25:58.617Z,13.60
2018-12-05T13:28:25.238Z,21.43
2018-12-05T13:30:51.855Z,13.83
2018-12-05T13:33:18.336Z,10.40
2018-12-05T13:35:44.894Z,11.33
2018-12-05T13:38:11.513Z,13.33
2018-12-05T13:40:38.091Z,12.87
2018-12-05T13:43:04.697Z,13.60
2018-12-05T13:45:31.265Z,9.60
2018-12-05T13:47:57.746Z,10.03
2018-12-05T13:50:24.523Z,12.00
2018-12-05T13:52:51.003Z,10.53
2018-12-05T13:55:17.493Z,11.77
2018-12-05T13:57:44.093Z,8.47
2018-12-05T14:00:11.233Z,9.30
2018-12-05T14:02:37.850Z,10.03
2018-12-05T14:05:04.527Z,8.00
2018-12-05T14:07:32.147Z,10.27
2018-12-05T14:09:58.850Z,8.83
2018-12-05T14:12:26.081Z,9.13
2018-12-05T14:14:53.089Z,13.10
2018-12-05T14:17:19.581Z,10.67
2018-12-05T14:19:46.070Z,10.80
2018-12-05T14:22:12.639Z,12.10
2018-12-05T14:24:39.128Z,11.80
2018-12-05T14:27:05.689Z,8.00
2018-12-05T14:29:32.229Z,10.63
2018-12-05T14:31:58.865Z,13.07
2018-12-05T14:34:25.428Z,12.13
2018-12-05T14:36:51.991Z,11.57
2018-12-05T14:39:18.597Z,13.17
2018-12-05T14:41:45.348Z,15.50
2018-12-05T14:44:12.051Z,14.60
2018-12-05T14:46:38.526Z,11.77
2018-12-05T14:49:05.126Z,14.03
2018-12-05T14:51:31.599Z,12.40
2018-12-05T14:53:58.181Z,14.13
2018-12-05T14:56:24.608Z,17.40
2018-12-05T14:58:51.350Z,12.63
2018-12-05T15:01:17.805Z,19.80
2018-12-05T15:03:44.368Z,14.53
2018-12-05T15:06:10.871Z,10.97
2018-12-05T15:08:37.631Z,13.20
2018-12-05T15:11:04.078Z,13.93
2018-12-05T15:13:30.752Z,13.37
2018-12-05T15:15:57.338Z,16.50
2018-12-05T15:18:24.067Z,12.27
2018-12-05T15:20:50.920Z,15.47
2018-12-05T15:23:17.513Z,17.03
2018-12-05T15:25:44.093Z,15.00
2018-12-05T15:28:10.679Z,14.53
2018-12-05T15:30:37.206Z,14.10
2018-12-05T15:33:03.664Z,19.10
2018-12-05T15:35:30.450Z,19.13
2018-12-05T15:37:57.112Z,17.30
2018-12-05T15:40:24.474Z,15.10
2018-12-05T15:42:50.911Z,14.00
2018-12-05T15:45:21.539Z,14.40
2018-12-05T15:47:45.887Z,14.90
2018-12-05T15:50:12.713Z,11.60
2018-12-05T15:52:39.113Z,20.33
2018-12-05T15:55:05.925Z,22.20
2018-12-05T15:57:32.480Z,21.43
2018-12-05T15:59:58.969Z,18.83
2018-12-05T16:02:25.705Z,16.17
2018-12-05T16:04:52.308Z,18.20
2018-12-05T16:07:18.770Z,18.97
2018-12-05T16:09:45.266Z,14.23
2018-12-05T16:12:11.779Z,15.87
2018-12-05T16:14:38.280Z,15.30
2018-12-05T16:17:04.985Z,15.90
2018-12-05T16:19:31.476Z,18.27
2018-12-05T16:21:58.011Z,13.67
2018-12-05T16:24:24.349Z,16.90
2018-12-05T16:26:50.793Z,15.03
2018-12-05T16:29:17.284Z,14.80
2018-12-05T16:31:43.890Z,17.20
2018-12-05T16:34:10.450Z,15.90
2018-12-05T16:36:37.048Z,15.50
2018-12-05T16:39:06.289Z,17.43
2018-12-05T16:41:32.793Z,16.53
2018-12-05T16:44:00.534Z,14.13
2018-12-05T16:46:27.201Z,18.70
2018-12-05T16:48:53.719Z,15.60
2018-12-05T16:51:20.314Z,14.30
2018-12-05T16:53:46.759Z,15.13
2018-12-05T16:56:13.419Z,25.20
2018-12-05T16:58:39.982Z,15.03
2018-12-05T17:01:06.518Z,18.73
2018-12-05T17:03:33.038Z,15.03
2018-12-05T17:05:59.544Z,13.90
2018-12-05T17:08:25.918Z,12.67
2018-12-05T17:10:52.415Z,13.93
2018-12-05T17:13:19.130Z,23.57
2018-12-05T17:15:45.813Z,14.70
2018-12-05T17:18:12.446Z,18.17
2018-12-05T17:20:39.089Z,13.73
2018-12-05T17:23:05.647Z,12.93
2018-12-05T17:25:32.301Z,12.33
2018-12-05T17:27:58.768Z,14.40
2018-12-05T17:30:25.373Z,15.13
2018-12-05T17:32:51.835Z,11.27
2018-12-05T17:35:18.348Z,16.97
2018-12-05T17:37:44.950Z,19.83
2018-12-05T17:40:11.538Z,21.83
2018-12-05T17:42:38.025Z,17.33
2018-12-05T17:45:04.786Z,15.13
2018-12-05T17:47:31.285Z,12.90
2018-12-05T17:49:57.760Z,18.20
2018-12-05T17:52:24.373Z,14.33
2018-12-05T17:54:51.017Z,16.17
2018-12-05T17:57:17.522Z,12.03
2018-12-05T17:59:44.012Z,14.90
2018-12-05T18:02:10.526Z,10.67
2018-12-05T18:04:36.900Z,10.33
2018-12-05T18:07:03.693Z,11.73
2018-12-05T18:09:30.306Z,13.17
2018-12-05T18:11:56.680Z,10.37
2018-12-05T18:14:23.324Z,14.13
2018-12-05T18:16:49.765Z,12.53
2018-12-05T18:19:16.235Z,11.83
2018-12-05T18:21:42.900Z,15.30
2018-12-05T18:24:09.649Z,11.87
2018-12-05T18:26:36.152Z,12.97
2018-12-05T18:29:02.877Z,14.80
2018-12-05T18:31:29.631Z,11.40
2018-12-05T18:33:56.224Z,11.87
2018-12-05T18:36:22.772Z,11.00
2018-12-05T18:38:49.326Z,14.67
2018-12-05T18:41:15.990Z,12.17
2018-12-05T18:43:42.442Z,11.10
2018-12-05T18:46:08.920Z,12.43
2018-12-05T18:48:35.455Z,9.63
2018-12-05T18:51:02.082Z,12.90
2018-12-05T18:53:28.588Z,12.67
2018-12-05T18:55:54.955Z,10.83
2018-12-05T18:58:21.705Z,13.43
2018-12-05T19:00:48.061Z,14.17
2018-12-05T19:03:14.443Z,17.00
2018-12-05T19:05:40.845Z,11.37
2018-12-05T19:08:08.918Z,13.73
2018-12-05T19:10:36.633Z,10.77
2018-12-05T19:13:03.303Z,13.18
2018-12-05T19:15:29.788Z,12.50
2018-12-05T19:17:56.392Z,12.57
2018-12-05T19:20:22.776Z,12.63
2018-12-05T19:22:49.242Z,13.57
2018-12-05T19:25:15.681Z,20.10
2018-12-05T19:27:42.155Z,11.57
2018-12-05T19:30:08.970Z,10.27
2018-12-05T19:32:35.637Z,14.47
2018-12-05T19:35:03.345Z,10.00
2018-12-05T19:37:29.918Z,16.53
2018-12-05T19:39:56.621Z,12.27
2018-12-05T19:42:23.116Z,9.17
2018-12-05T19:44:49.815Z,13.13
2018-12-05T19:47:16.507Z,14.70
2018-12-05T19:49:43.224Z,12.27
2018-12-05T19:52:09.838Z,13.73
2018-12-05T19:54:36.425Z,12.57
2018-12-05T19:57:02.905Z,13.07
2018-12-05T19:59:29.521Z,13.17
2018-12-05T20:01:56.116Z,14.33
2018-12-05T20:04:22.613Z,13.00
2018-12-05T20:06:49.181Z,17.03
2018-12-05T20:09:15.876Z,10.57
2018-12-05T20:11:42.426Z,12.67
2018-12-05T20:14:10.851Z,15.53
2018-12-05T20:16:46.097Z,13.20
2018-12-05T20:19:12.590Z,13.90
2018-12-05T20:21:39.040Z,13.20
2018-12-05T20:24:05.626Z,11.67
2018-12-05T20:26:32.260Z,13.60
2018-12-05T20:28:58.801Z,11.13
2018-12-05T20:31:25.298Z,10.97
2018-12-05T20:33:51.906Z,12.53
2018-12-05T20:36:18.470Z,11.20
2018-12-05T20:38:44.964Z,13.13
2018-12-05T20:41:11.446Z,10.77
2018-12-05T20:43:38.540Z,13.70
2018-12-05T20:46:05.067Z,11.33
2018-12-05T20:48:31.675Z,13.00
2018-12-05T20:50:58.257Z,11.73
2018-12-05T20:53:24.864Z,12.70
2018-12-05T20:55:51.393Z,9.87
2018-12-05T20:58:17.861Z,9.70
2018-12-05T21:00:44.430Z,11.60
2018-12-05T21:03:10.886Z,11.83
2018-12-05T21:05:37.989Z,9.10
2018-12-05T21:08:04.631Z,9.83
2018-12-05T21:10:31.184Z,12.57
2018-12-05T21:12:57.765Z,10.57
2018-12-05T21:15:24.342Z,7.20
2018-12-05T21:17:50.912Z,8.30
2018-12-05T21:20:17.576Z,9.57
2018-12-05T21:22:47.139Z,11.33
2018-12-05T21:25:12.619Z,10.47
2018-12-05T21:27:40.939Z,12.50
2018-12-05T21:30:07.900Z,8.63
2018-12-05T21:32:35.403Z,7.27
2018-12-05T21:35:02.319Z,9.17
2018-12-05T21:37:29.048Z,7.83
2018-12-05T21:39:55.699Z,8.27
2018-12-05T21:42:23.016Z,6.77
2018-12-05T21:44:49.695Z,10.37
2018-12-05T21:47:16.344Z,8.83
2018-12-05T21:49:42.790Z,8.10
2018-12-05T21:52:09.244Z,11.30
2018-12-05T21:54:35.849Z,8.60
2018-12-05T21:57:02.403Z,9.60
2018-12-05T21:59:29.130Z,10.33
2018-12-05T22:01:55.719Z,9.30
2018-12-05T22:04:22.405Z,9.83
2018-12-05T22:06:49.025Z,6.70
2018-12-05T22:09:15.689Z,12.67
2018-12-05T22:11:42.268Z,9.63
2018-12-05T22:14:08.896Z,12.20
2018-12-05T22:16:35.519Z,9.50
2018-12-05T22:19:02.130Z,7.60
2018-12-05T22:21:28.731Z,8.30
2018-12-05T22:23:55.802Z,8.43
2018-12-05T22:26:22.660Z,10.17
2018-12-05T22:28:49.240Z,11.27
2018-12-05T22:31:16.552Z,14.90
2018-12-05T22:33:43.276Z,10.13
2018-12-05T22:36:09.789Z,8.70
2018-12-05T22:38:36.555Z,9.73
2018-12-05T22:41:03.077Z,8.20
2018-12-05T22:43:29.661Z,10.03
2018-12-05T22:45:56.281Z,7.80
2018-12-05T22:48:23.012Z,8.40
2018-12-05T22:50:49.771Z,8.57
2018-12-05T22:53:16.341Z,8.30
2018-12-05T22:55:42.821Z,7.37
2018-12-05T22:58:09.452Z,8.20
2018-12-05T23:00:38.180Z,10.80
2018-12-05T23:03:04.767Z,9.47
2018-12-05T23:05:31.361Z,8.53
2018-12-05T23:07:58.012Z,8.63
2018-12-05T23:10:24.605Z,5.30
2018-12-05T23:12:51.248Z,6.60
2018-12-05T23:15:17.869Z,6.90
2018-12-05T23:17:44.431Z,6.00
2018-12-05T23:20:11.140Z,8.60
2018-12-05T23:22:37.842Z,11.03
2018-12-05T23:25:05.037Z,7.20
2018-12-05T23:27:32.462Z,8.07
2018-12-05T23:29:59.748Z,6.67
2018-12-05T23:32:26.484Z,7.30
2018-12-05T23:34:53.060Z,6.27
2018-12-05T23:37:19.666Z,6.10
2018-12-05T23:39:46.499Z,5.57
2018-12-05T23:42:13.865Z,7.07
2018-12-05T23:44:40.515Z,5.20
2018-12-05T23:47:07.077Z,7.53
2018-12-05T23:49:34.208Z,5.63
2018-12-05T23:52:00.868Z,5.90
2018-12-05T23:54:27.608Z,7.23
2018-12-05T23:56:54.233Z,8.10
2018-12-05T23:59:20.891Z,8.03
